Time;durP1;ratioP1;P1;durP2;ratioP2;P2;SDS_P1;SDS_P2;PMS_P1;PMS_P2;Temp;Humidity;BMP_temperature;BMP_pressure;BME280_temperature;BME280_humidity;BME280_pressure;Samples;Min_cycle;Max_cycle;Signal;HPM_P1;HPM_P2
2022/02/17 00:00:15;;;;;;;1.17;0.70;;;;;;;12.32;100.00;98699.03;674087;29;1836;-82
2022/02/17 00:00:36;;;;;;;1.60;0.70;;;;;;;12.29;100.00;98699.16;678667;29;1911;-83
2022/02/17 00:00:58;;;;;;;1.92;0.60;;;;;;;12.29;100.00;98688.69;678353;29;4306;-84
2022/02/17 00:01:18;;;;;;;2.15;0.65;;;;;;;12.27;100.00;98676.50;681565;29;1250;-82
2022/02/17 00:02:02;;;;;;;1.25;0.70;;;;;;;12.33;100.00;98674.53;678753;29;1459;-83
2022/02/17 00:02:23;;;;;;;1.33;0.60;;;;;;;12.36;100.00;98690.09;675939;29;1447;-84
2022/02/17 00:02:49;;;;;;;2.25;0.70;;;;;;;12.36;100.00;98662.13;677732;29;1268;-82
2022/02/17 00:03:21;;;;;;;3.22;0.80;;;;;;;12.33;100.00;98669.28;681272;28;1431;-85
2022/02/17 00:03:54;;;;;;;0.90;0.50;;;;;;;12.31;100.00;98692.06;681161;29;1327;-82
2022/02/17 00:04:15;;;;;;;2.80;0.70;;;;;;;12.28;100.00;98664.25;680885;29;4926;-85
2022/02/17 00:04:41;;;;;;;2.20;0.73;;;;;;;12.19;100.00;98662.88;678509;29;2737;-84
2022/02/17 00:05:09;;;;;;;2.55;0.80;;;;;;;12.21;100.00;98695.09;676455;29;2157;-82
2022/02/17 00:05:33;;;;;;;3.00;0.75;;;;;;;12.15;100.00;98665.69;677492;29;3782;-82
2022/02/17 00:05:57;;;;;;;1.85;0.70;;;;;;;12.14;100.00;98675.31;679108;29;1437;-84
2022/02/17 00:06:31;;;;;;;1.42;0.70;;;;;;;12.12;100.00;98674.53;679698;29;938;-84
2022/02/17 00:06:52;;;;;;;1.42;0.60;;;;;;;12.15;100.00;98676.19;677004;29;4291;-84
2022/02/17 00:07:19;;;;;;;1.50;0.70;;;;;;;12.19;100.00;98668.13;679011;29;1194;-84
2022/02/17 00:07:40;;;;;;;2.65;0.80;;;;;;;12.16;100.00;98689.22;680545;29;1142;-82
2022/02/17 00:08:03;;;;;;;1.55;0.57;;;;;;;12.19;100.00;98694.31;682293;28;1426;-80
2022/02/17 00:08:24;;;;;;;1.33;0.60;;;;;;;12.18;100.00;98682.13;678614;29;3991;-83
2022/02/17 00:08:47;;;;;;;1.57;0.60;;;;;;;12.16;100.00;98677.88;673409;29;1600;-83
2022/02/17 00:09:08;;;;;;;2.85;0.70;;;;;;;12.14;100.00;98695.41;675685;29;1465;-83
2022/02/17 00:09:28;;;;;;;1.15;0.55;;;;;;;12.13;100.00;98688.47;680695;29;1533;-82
2022/02/17 00:09:49;;;;;;;1.55;0.60;;;;;;;12.13;100.00;98696.31;680016;28;4313;-81
2022/02/17 00:10:13;;;;;;;1.50;0.50;;;;;;;12.16;100.00;98676.09;680023;28;1435;-81
2022/02/17 00:10:39;;;;;;;1.45;0.68;;;;;;;12.17;100.00;98679.56;679904;29;1638;-82
2022/02/17 00:11:00;;;;;;;1.42;0.75;;;;;;;12.20;100.00;98664.59;679413;28;2042;-81
2022/02/17 00:11:21;;;;;;;2.13;0.70;;;;;;;12.18;100.00;98655.09;679049;29;2371;-82
2022/02/17 00:11:42;;;;;;;2.50;0.70;;;;;;;12.16;100.00;98672.66;677340;29;1281;-82
2022/02/17 00:12:03;;;;;;;2.70;0.70;;;;;;;12.12;100.00;98677.16;676061;29;997;-81
2022/02/17 00:12:24;;;;;;;2.80;0.70;;;;;;;12.10;100.00;98668.50;677245;29;1259;-82
2022/02/17 00:12:47;;;;;;;3.38;0.70;;;;;;;12.09;100.00;98666.81;675001;29;1273;-80
2022/02/17 00:13:13;;;;;;;2.53;0.70;;;;;;;12.16;100.00;98676.09;667069;29;4795;-83
2022/02/17 00:13:34;;;;;;;1.33;0.60;;;;;;;12.16;100.00;98649.91;672958;29;1347;-83
2022/02/17 00:13:54;;;;;;;1.05;0.60;;;;;;;12.14;100.00;98670.06;678697;29;2286;-83
2022/02/17 00:14:15;;;;;;;2.28;0.70;;;;;;;12.15;100.00;98640.34;676327;29;3785;-83
2022/02/17 00:14:36;;;;;;;2.80;0.70;;;;;;;12.15;100.00;98637.72;676632;29;1934;-85
2022/02/17 00:14:57;;;;;;;1.70;0.60;;;;;;;12.14;100.00;98636.03;676131;29;1174;-84
2022/02/17 00:15:20;;;;;;;1.98;0.80;;;;;;;12.12;100.00;98644.88;679427;29;1528;-83
2022/02/17 00:15:41;;;;;;;1.67;0.63;;;;;;;12.08;100.00;98642.38;679412;29;1543;-84
2022/02/17 00:16:02;;;;;;;2.70;0.70;;;;;;;12.09;100.00;98648.50;672835;29;4309;-85
2022/02/17 00:16:43;;;;;;;2.13;0.75;;;;;;;12.11;100.00;98646.63;671535;29;1419;-85
2022/02/17 00:17:06;;;;;;;1.65;0.70;;;;;;;12.15;100.00;98639.50;674356;29;1556;-83
2022/02/17 00:17:29;;;;;;;1.95;0.70;;;;;;;12.21;100.00;98629.63;682508;28;1530;-83
2022/02/17 00:17:49;;;;;;;2.97;0.70;;;;;;;12.29;100.00;98631.03;684508;28;928;-84
2022/02/17 00:18:16;;;;;;;2.28;0.60;;;;;;;12.21;100.00;98634.00;677805;29;1299;-83
2022/02/17 00:18:37;;;;;;;2.35;0.80;;;;;;;12.19;100.00;98660.25;675953;29;894;-83
2022/02/17 00:18:58;;;;;;;2.70;0.85;;;;;;;12.17;100.00;98646.38;677910;29;4294;-82
2022/02/17 00:19:22;;;;;;;2.80;0.80;;;;;;;12.17;100.00;98638.53;679487;29;1075;-84
2022/02/17 00:19:42;;;;;;;1.40;0.57;;;;;;;12.16;100.00;98626.34;677027;29;991;-84
2022/02/17 00:20:03;;;;;;;2.75;0.73;;;;;;;12.14;100.00;98664.84;675390;29;3920;-82
2022/02/17 00:20:25;;;;;;;3.28;0.82;;;;;;;12.13;100.00;98673.63;679081;29;2434;-82
2022/02/17 00:20:47;;;;;;;2.10;0.70;;;;;;;12.11;100.00;98651.88;677020;29;1958;-86
2022/02/17 00:21:11;;;;;;;1.98;0.60;;;;;;;12.13;100.00;98649.19;675141;29;1301;-84
2022/02/17 00:21:40;;;;;;;2.20;0.80;;;;;;;12.08;100.00;98665.94;674878;29;1347;-84
2022/02/17 00:22:04;;;;;;;1.98;0.77;;;;;;;12.11;100.00;98651.03;672588;29;4417;-84
2022/02/17 00:22:33;;;;;;;2.50;0.90;;;;;;;12.07;100.00;98637.22;673388;29;3512;-83
2022/02/17 00:22:54;;;;;;;2.33;0.80;;;;;;;12.17;100.00;98649.00;675956;29;1364;-85
2022/02/17 00:23:18;;;;;;;2.83;0.80;;;;;;;12.14;100.00;98654.34;672513;29;2673;-84
2022/02/17 00:23:41;;;;;;;2.38;0.90;;;;;;;12.14;100.00;98635.19;675184;29;1121;-85
2022/02/17 00:24:08;;;;;;;2.45;1.00;;;;;;;12.15;100.00;98671.78;672409;29;1344;-83
2022/02/17 00:24:31;;;;;;;3.45;0.80;;;;;;;12.13;100.00;98655.28;676744;29;1274;-85
2022/02/17 00:24:52;;;;;;;2.08;0.70;;;;;;;12.10;100.00;98647.53;673203;29;4357;-84
2022/02/17 00:25:13;;;;;;;2.35;0.70;;;;;;;12.12;100.00;98661.44;673938;29;2172;-83
2022/02/17 00:25:37;;;;;;;2.60;0.63;;;;;;;12.07;100.00;98630.22;676117;29;1456;-85
2022/02/17 00:26:08;;;;;;;3.00;0.70;;;;;;;12.02;100.00;98670.63;679436;29;1425;-85
2022/02/17 00:26:48;;;;;;;2.33;0.80;;;;;;;12.03;100.00;98664.44;674253;29;1525;-85
2022/02/17 00:27:17;;;;;;;1.52;0.80;;;;;;;12.03;100.00;98641.75;677362;29;1454;-85
2022/02/17 00:27:39;;;;;;;1.40;0.70;;;;;;;12.05;100.00;98626.81;677052;29;1371;-85
2022/02/17 00:27:59;;;;;;;2.03;0.75;;;;;;;12.01;100.00;98633.09;674883;29;4405;-83
2022/02/17 00:28:23;;;;;;;3.13;0.90;;;;;;;12.08;100.00;98657.25;678702;29;2361;-84
2022/02/17 00:28:51;;;;;;;2.65;0.85;;;;;;;12.04;100.00;98624.25;683004;28;1638;-84
2022/02/17 00:29:25;;;;;;;1.38;0.70;;;;;;;12.09;100.00;98631.00;682037;28;1142;-83
2022/02/17 00:29:45;;;;;;;1.60;0.70;;;;;;;12.06;100.00;98662.56;682287;29;2210;-84
2022/02/17 00:30:11;;;;;;;1.67;0.70;;;;;;;11.97;100.00;98631.53;681142;28;1416;-84
2022/02/17 00:30:32;;;;;;;3.76;0.90;;;;;;;11.98;100.00;98659.41;680695;29;1507;-83
2022/02/17 00:30:55;;;;;;;2.72;0.80;;;;;;;12.02;100.00;98626.94;681847;28;4393;-82
2022/02/17 00:31:21;;;;;;;3.63;0.80;;;;;;;12.01;100.00;98632.25;681192;29;3331;-84
2022/02/17 00:31:53;;;;;;;2.53;1.13;;;;;;;11.96;100.00;98655.16;675164;29;1112;-84
2022/02/17 00:32:19;;;;;;;3.00;0.80;;;;;;;11.97;100.00;98625.44;681851;28;1345;-84
2022/02/17 00:32:43;;;;;;;2.83;1.00;;;;;;;11.93;100.00;98654.34;679623;29;1284;-83
2022/02/17 00:33:06;;;;;;;2.67;0.90;;;;;;;11.96;100.00;98616.72;681148;28;1154;-82
2022/02/17 00:33:29;;;;;;;3.00;0.90;;;;;;;12.12;100.00;98643.09;678680;29;1105;-83
2022/02/17 00:33:50;;;;;;;1.83;0.80;;;;;;;12.07;100.00;98632.84;674500;29;4316;-83
2022/02/17 00:34:10;;;;;;;2.13;1.27;;;;;;;12.07;100.00;98637.22;674964;29;1318;-81
2022/02/17 00:34:31;;;;;;;2.40;1.00;;;;;;;12.04;100.00;98621.63;673328;29;3728;-84
2022/02/17 00:34:52;;;;;;;2.50;0.98;;;;;;;12.04;100.00;98606.75;676860;29;1536;-83
2022/02/17 00:35:19;;;;;;;3.30;1.05;;;;;;;12.08;100.00;98638.91;678659;29;1935;-81
2022/02/17 00:35:39;;;;;;;1.67;0.70;;;;;;;12.07;100.00;98613.63;675023;29;1558;-84
2022/02/17 00:36:00;;;;;;;2.83;0.90;;;;;;;12.15;100.00;98624.63;676276;29;1517;-82
2022/02/17 00:36:21;;;;;;;2.22;0.80;;;;;;;12.19;100.00;98617.50;673609;29;1208;-82
2022/02/17 00:36:41;;;;;;;2.10;0.80;;;;;;;12.16;100.00;98610.63;672179;29;3937;-82
2022/02/17 00:37:03;;;;;;;2.50;0.80;;;;;;;12.18;100.00;98626.28;675391;29;4298;-84
2022/02/17 00:37:27;;;;;;;1.85;0.90;;;;;;;12.24;100.00;98608.53;671488;29;1416;-85
2022/02/17 00:37:53;;;;;;;2.80;1.00;;;;;;;12.17;100.00;98637.66;675904;29;1331;-83
2022/02/17 00:38:16;;;;;;;2.13;0.80;;;;;;;12.18;100.00;98606.16;678550;29;1340;-85
2022/02/17 00:38:37;;;;;;;3.33;0.90;;;;;;;12.20;100.00;98646.25;681072;29;1384;-83
2022/02/17 00:39:04;;;;;;;3.10;0.90;;;;;;;12.22;100.00;98610.34;679545;29;1256;-85
2022/02/17 00:39:24;;;;;;;2.90;0.90;;;;;;;12.24;100.00;98639.97;676061;29;1932;-83
2022/02/17 00:39:45;;;;;;;2.83;0.82;;;;;;;12.16;100.00;98621.09;678384;29;3409;-83
2022/02/17 00:40:11;;;;;;;2.83;0.90;;;;;;;12.13;100.00;98636.97;677088;29;5510;-83
2022/02/17 00:40:32;;;;;;;2.03;0.70;;;;;;;12.16;100.00;98615.88;677886;29;1428;-83
2022/02/17 00:40:52;;;;;;;2.67;0.70;;;;;;;12.16;100.00;98613.25;673724;29;1986;-83
2022/02/17 00:41:24;;;;;;;2.08;0.80;;;;;;;12.17;100.00;98601.00;678959;29;1470;-82
2022/02/17 00:41:53;;;;;;;1.77;0.80;;;;;;;12.14;100.00;98609.81;682524;29;864;-85
2022/02/17 00:42:16;;;;;;;3.03;0.90;;;;;;;12.11;100.00;98606.50;679767;29;1777;-84
2022/02/17 00:42:39;;;;;;;4.32;0.82;;;;;;;12.09;100.00;98619.69;681101;29;1397;-83
2022/02/17 00:43:00;;;;;;;3.58;1.10;;;;;;;12.07;100.00;98616.25;677568;29;4322;-84
2022/02/17 00:43:25;;;;;;;3.08;0.70;;;;;;;12.07;100.00;98626.72;675918;29;1440;-83
2022/02/17 00:43:55;;;;;;;2.72;0.73;;;;;;;12.14;100.00;98649.13;677491;29;1391;-84
2022/02/17 00:44:16;;;;;;;1.98;0.75;;;;;;;12.13;100.00;98613.38;683859;28;1258;-84
2022/02/17 00:44:37;;;;;;;2.83;0.90;;;;;;;12.12;100.00;98610.84;679104;29;1367;-85
2022/02/17 00:44:58;;;;;;;3.25;0.80;;;;;;;12.06;100.00;98601.50;683897;28;1942;-83
2022/02/17 00:45:25;;;;;;;2.70;0.80;;;;;;;12.04;100.00;98626.88;679356;29;1523;-83
2022/02/17 00:45:45;;;;;;;2.20;0.85;;;;;;;12.04;100.00;98611.16;678780;29;2422;-83
2022/02/17 00:46:06;;;;;;;4.20;1.30;;;;;;;12.03;100.00;98617.31;680958;28;4245;-83
2022/02/17 00:46:32;;;;;;;2.90;0.85;;;;;;;11.99;100.00;98641.91;681275;29;1291;-82
2022/02/17 00:46:58;;;;;;;2.15;0.73;;;;;;;11.99;100.00;98605.25;679934;29;1320;-84
2022/02/17 00:47:19;;;;;;;1.90;0.70;;;;;;;11.97;100.00;98625.44;680296;29;1253;-84
2022/02/17 00:47:43;;;;;;;2.10;0.80;;;;;;;12.01;100.00;98612.13;676522;29;1404;-82
2022/02/17 00:48:04;;;;;;;2.70;0.88;;;;;;;12.05;100.00;98642.50;676059;29;2121;-83
2022/02/17 00:48:32;;;;;;;2.50;0.90;;;;;;;12.01;100.00;98642.72;675357;29;2160;-82
2022/02/17 00:48:56;;;;;;;1.73;0.87;;;;;;;11.99;100.00;98608.75;678313;29;4316;-83
2022/02/17 00:49:17;;;;;;;2.50;0.85;;;;;;;12.02;100.00;98619.09;672974;29;1221;-84
2022/02/17 00:49:38;;;;;;;3.38;0.90;;;;;;;11.99;100.00;98619.22;679566;29;1370;-84
2022/02/17 00:49:58;;;;;;;2.80;0.70;;;;;;;12.06;100.00;98625.91;678148;29;1267;-82
2022/02/17 00:50:23;;;;;;;2.47;0.90;;;;;;;12.01;100.00;98625.22;674560;29;1037;-84
2022/02/17 00:50:47;;;;;;;3.22;0.80;;;;;;;12.11;100.00;98620.44;681273;28;2310;-84
2022/02/17 00:51:07;;;;;;;2.87;0.87;;;;;;;12.16;100.00;98609.78;678235;29;2242;-84
2022/02/17 00:51:33;;;;;;;1.85;0.80;;;;;;;12.20;100.00;98609.56;678381;29;1841;-86
2022/02/17 00:51:55;;;;;;;1.63;0.70;;;;;;;12.18;100.00;98619.25;683724;28;4387;-85
2022/02/17 00:52:16;;;;;;;2.50;0.90;;;;;;;12.12;100.00;98609.06;678840;29;1299;-84
2022/02/17 00:52:49;;;;;;;4.10;1.10;;;;;;;12.05;100.00;98618.09;674017;29;1146;-85
2022/02/17 00:53:21;;;;;;;2.35;0.80;;;;;;;12.10;100.00;98616.13;669198;29;1428;-86
2022/02/17 00:53:48;;;;;;;2.45;0.88;;;;;;;12.07;100.00;98637.22;674240;29;1422;-84
2022/02/17 00:54:09;;;;;;;3.00;0.80;;;;;;;12.06;100.00;98630.28;675335;29;1428;-83
2022/02/17 00:54:34;;;;;;;1.38;0.55;;;;;;;12.09;100.00;98631.00;677941;29;848;-82
2022/02/17 00:54:55;;;;;;;1.52;0.60;;;;;;;12.18;100.00;98628.88;683756;28;4350;-81
2022/02/17 00:55:25;;;;;;;1.75;0.70;;;;;;;12.20;100.00;98611.34;678630;29;1348;-89
2022/02/17 00:57:27;;;;;;;0.98;0.50;;;;;;;12.07;100.00;98648.56;681089;28;1420;-89
2022/02/17 00:57:56;;;;;;;1.20;0.65;;;;;;;12.08;100.00;98610.09;680731;29;4384;-85
2022/02/17 00:59:16;;;;;;;1.05;0.60;;;;;;;12.18;100.00;98615.78;676499;29;1546;-89
2022/02/17 00:59:37;;;;;;;1.95;0.93;;;;;;;12.14;100.00;98620.31;679863;29;1339;-84
2022/02/17 01:00:31;;;;;;;1.98;0.80;;;;;;;12.16;100.00;98609.78;675530;29;2272;-87
2022/02/17 01:01:02;;;;;;;2.13;0.63;;;;;;;12.17;100.00;98638.53;671055;29;4319;-86
2022/02/17 01:01:29;;;;;;;2.28;0.77;;;;;;;12.10;100.00;98629.22;681294;29;1677;-84
2022/02/17 01:02:09;;;;;;;1.08;0.60;;;;;;;12.02;100.00;98616.47;678875;29;1920;-87
2022/02/17 01:02:48;;;;;;;2.30;0.85;;;;;;;12.09;100.00;98610.03;678786;29;2022;-87
2022/02/17 01:03:11;;;;;;;2.13;0.68;;;;;;;12.05;100.00;98645.13;675783;29;1392;-84
2022/02/17 01:03:31;;;;;;;1.65;0.65;;;;;;;12.09;100.00;98645.88;678401;29;1474;-84
2022/02/17 01:03:55;;;;;;;2.83;0.80;;;;;;;12.07;100.00;98622.38;674430;29;4311;-85
2022/02/17 01:04:19;;;;;;;3.20;0.90;;;;;;;12.06;100.00;98615.41;684082;28;1497;-85
2022/02/17 01:04:43;;;;;;;1.80;0.80;;;;;;;12.17;100.00;98614.97;679831;29;1269;-86
2022/02/17 01:05:07;;;;;;;2.05;0.77;;;;;;;12.10;100.00;98605.63;676002;29;2110;-85
2022/02/17 01:05:31;;;;;;;1.73;0.75;;;;;;;12.08;100.00;98600.47;674568;29;1998;-85
2022/02/17 01:05:53;;;;;;;1.77;0.88;;;;;;;12.06;100.00;98652.09;676113;29;1410;-85
2022/02/17 01:06:14;;;;;;;2.63;0.90;;;;;;;12.05;100.00;98653.00;676713;29;1475;-86
2022/02/17 01:06:39;;;;;;;2.85;0.90;;;;;;;11.98;100.00;98622.75;677841;29;1206;-82
2022/02/17 01:06:59;;;;;;;2.45;0.70;;;;;;;11.99;100.00;98628.84;678130;29;5471;-84
2022/02/17 01:07:24;;;;;;;3.35;0.90;;;;;;;12.02;100.00;98626.94;678072;29;1269;-82
2022/02/17 01:07:44;;;;;;;2.70;0.80;;;;;;;11.95;100.00;98628.13;675657;29;1904;-84
2022/02/17 01:08:05;;;;;;;2.63;0.83;;;;;;;11.98;100.00;98628.00;678202;29;2300;-82
2022/02/17 01:08:26;;;;;;;2.35;0.75;;;;;;;12.03;100.00;98614.69;675186;29;1781;-82
2022/02/17 01:08:56;;;;;;;2.80;0.70;;;;;;;11.99;100.00;98618.34;674159;29;1764;-85
2022/02/17 01:09:25;;;;;;;3.35;0.82;;;;;;;12.00;100.00;98609.59;678251;29;1665;-84
2022/02/17 01:09:48;;;;;;;2.88;0.80;;;;;;;12.02;100.00;98618.25;678692;28;4409;-80
2022/02/17 01:10:12;;;;;;;3.20;0.70;;;;;;;11.98;100.00;98629.78;680982;28;1479;-85
2022/02/17 01:10:35;;;;;;;2.15;0.90;;;;;;;12.02;99.39;98595.53;681034;28;2639;-87
2022/02/17 01:10:58;;;;;;;3.20;0.98;;;;;;;11.99;100.00;98636.69;679134;29;1386;-83
2022/02/17 01:11:25;;;;;;;3.17;0.90;;;;;;;11.96;100.00;98613.25;679562;29;1265;-84
2022/02/17 01:11:48;;;;;;;3.50;0.80;;;;;;;11.96;100.00;98610.63;680290;29;1318;-86
2022/02/17 01:12:12;;;;;;;3.00;0.80;;;;;;;11.96;100.00;98618.50;681084;28;1475;-85
2022/02/17 01:12:33;;;;;;;2.20;0.80;;;;;;;11.91;100.00;98629.16;679047;29;1293;-86
2022/02/17 01:13:01;;;;;;;3.35;0.80;;;;;;;11.88;100.00;98650.19;672804;29;4384;-85
2022/02/17 01:13:23;;;;;;;4.07;0.80;;;;;;;11.83;100.00;98618.16;676913;29;2027;-85
2022/02/17 01:13:44;;;;;;;4.72;0.93;;;;;;;11.81;99.90;98607.75;677939;29;1237;-85
2022/02/17 01:14:11;;;;;;;3.45;0.85;;;;;;;11.86;98.41;98618.84;681737;28;3740;-84
2022/02/17 01:14:36;;;;;;;2.88;0.85;;;;;;;11.88;98.43;98579.50;675842;29;1247;-85
2022/02/17 01:14:57;;;;;;;2.55;0.88;;;;;;;11.91;99.52;98632.59;673167;29;1557;-82
2022/02/17 01:15:25;;;;;;;3.55;1.10;;;;;;;11.93;98.46;98594.13;671856;29;1330;-83
2022/02/17 01:15:49;;;;;;;2.38;0.80;;;;;;;11.90;98.48;98612.56;677478;29;4357;-84
2022/02/17 01:16:12;;;;;;;3.42;0.82;;;;;;;11.93;98.85;98629.91;673365;29;2645;-83
2022/02/17 01:16:42;;;;;;;3.72;0.90;;;;;;;11.93;98.10;98578.41;676399;29;2119;-83
2022/02/17 01:17:10;;;;;;;4.57;0.80;;;;;;;12.00;96.47;98596.50;673502;29;1612;-83
2022/02/17 01:17:37;;;;;;;3.80;0.80;;;;;;;12.03;95.12;98591.13;682048;29;1395;-85
2022/02/17 01:18:00;;;;;;;3.70;1.05;;;;;;;12.01;96.88;98627.84;679449;29;1307;-83
2022/02/17 01:18:40;;;;;;;4.53;1.30;;;;;;;12.02;95.53;98608.63;677790;29;1321;-84
2022/02/17 01:19:10;;;;;;;3.55;0.98;;;;;;;11.99;97.08;98607.88;668952;29;4775;-83
2022/02/17 01:19:37;;;;;;;3.80;0.95;;;;;;;11.96;96.34;98610.63;678663;29;1499;-81
2022/02/17 01:19:58;;;;;;;3.95;0.90;;;;;;;11.95;97.07;98612.41;680197;28;1329;-83
2022/02/17 01:20:24;;;;;;;4.65;1.10;;;;;;;11.98;97.23;98603.59;677115;29;1150;-84
2022/02/17 01:20:47;;;;;;;3.53;0.80;;;;;;;12.00;97.37;98620.06;678280;29;1956;-80
2022/02/17 01:21:14;;;;;;;2.70;0.80;;;;;;;11.98;96.16;98617.53;679085;29;1153;-84
2022/02/17 01:21:40;;;;;;;2.15;0.70;;;;;;;11.94;97.72;98600.25;680590;29;1096;-82
2022/02/17 01:22:02;;;;;;;4.10;0.75;;;;;;;11.97;97.45;98615.81;679623;28;4340;-83
2022/02/17 01:22:27;;;;;;;2.42;0.80;;;;;;;11.95;96.31;98617.66;677989;29;1738;-82
2022/02/17 01:22:53;;;;;;;2.75;0.82;;;;;;;11.94;97.83;98634.28;674697;29;1584;-83
2022/02/17 01:23:21;;;;;;;3.75;0.90;;;;;;;11.87;96.56;98614.47;676619;29;1446;-82
2022/02/17 01:23:49;;;;;;;2.60;0.70;;;;;;;11.92;97.36;98571.47;677321;29;1434;-83
2022/02/17 01:24:10;;;;;;;2.58;0.90;;;;;;;11.98;97.44;98580.03;675856;29;1418;-84
2022/02/17 01:24:31;;;;;;;3.15;0.80;;;;;;;11.97;96.68;98621.03;673867;29;1642;-83
2022/02/17 01:25:03;;;;;;;3.33;0.88;;;;;;;11.94;96.81;98595.00;676418;29;4277;-85
2022/02/17 01:25:33;;;;;;;2.58;1.10;;;;;;;11.95;97.12;98607.19;678530;29;2091;-84
2022/02/17 01:25:54;;;;;;;3.00;0.90;;;;;;;12.00;96.23;98599.97;678449;29;1301;-84
2022/02/17 01:26:18;;;;;;;2.45;0.90;;;;;;;11.97;97.17;98607.13;675212;29;1370;-83
2022/02/17 01:26:47;;;;;;;3.30;1.00;;;;;;;11.93;98.20;98625.56;676033;29;1671;-83
2022/02/17 01:27:13;;;;;;;2.55;0.80;;;;;;;11.93;98.12;98609.84;675616;29;1542;-83
2022/02/17 01:27:33;;;;;;;2.65;0.80;;;;;;;11.93;98.69;98604.59;680067;29;2165;-86
2022/02/17 01:27:55;;;;;;;2.23;0.80;;;;;;;11.99;98.48;98639.31;678178;28;4343;-84
2022/02/17 01:28:19;;;;;;;3.00;0.90;;;;;;;11.98;98.60;98601.81;681349;28;2322;-83
2022/02/17 01:28:48;;;;;;;3.58;0.90;;;;;;;12.03;98.30;98620.78;679583;29;1437;-85
2022/02/17 01:29:10;;;;;;;2.53;0.88;;;;;;;11.97;98.31;98636.75;679369;29;1282;-84
2022/02/17 01:29:39;;;;;;;3.58;1.00;;;;;;;12.00;99.07;98622.69;676254;29;1262;-84
2022/02/17 01:30:08;;;;;;;3.95;0.95;;;;;;;11.93;98.94;98614.22;676454;29;1320;-86
2022/02/17 01:30:31;;;;;;;3.65;1.08;;;;;;;11.95;99.36;98640.34;677068;29;2158;-84
2022/02/17 01:31:00;;;;;;;3.25;0.90;;;;;;;11.91;100.00;98653.56;677001;29;4337;-85
2022/02/17 01:31:41;;;;;;;3.45;0.90;;;;;;;11.91;100.00;98632.59;679914;29;1551;-84
2022/02/17 01:32:15;;;;;;;3.83;0.90;;;;;;;11.85;100.00;98630.25;680460;28;1332;-83
2022/02/17 01:34:11;;;;;;;4.10;1.00;;;;;;;11.58;100.00;98642.72;673844;29;1237;-88
2022/02/17 01:35:07;;;;;;;3.75;1.00;;;;;;;11.57;100.00;98628.81;679935;29;4954;-86
2022/02/17 01:35:34;;;;;;;4.68;1.08;;;;;;;11.62;100.00;98656.56;675239;29;1496;-87
2022/02/17 01:36:09;;;;;;;4.07;1.10;;;;;;;11.54;100.00;98634.13;675182;29;2071;-85
2022/02/17 01:36:34;;;;;;;4.02;0.92;;;;;;;11.57;100.00;98639.28;673545;29;1371;-86
2022/02/17 01:36:55;;;;;;;3.00;0.93;;;;;;;11.63;100.00;98642.53;677573;29;1253;-85
2022/02/17 01:37:36;;;;;;;3.53;1.02;;;;;;;11.52;100.00;98651.69;679396;29;1434;-86
2022/02/17 01:38:00;;;;;;;4.45;1.05;;;;;;;11.48;100.00;98623.94;677105;29;1351;-87
2022/02/17 01:38:26;;;;;;;3.08;1.08;;;;;;;11.49;100.00;98656.19;673703;29;1290;-86
2022/02/17 01:39:03;;;;;;;3.47;1.00;;;;;;;11.48;100.00;98639.63;669320;29;2061;-87
2022/02/17 01:39:27;;;;;;;3.10;1.08;;;;;;;11.48;100.00;98639.63;676999;29;2361;-85
2022/02/17 01:40:02;;;;;;;3.30;1.00;;;;;;;11.42;100.00;98650.34;678353;29;4504;-87
2022/02/17 01:40:25;;;;;;;3.80;1.00;;;;;;;11.42;100.00;98624.19;678744;29;1263;-84
2022/02/17 01:41:05;;;;;;;3.15;0.80;;;;;;;11.43;100.00;98646.81;679764;29;1980;-85
2022/02/17 01:41:31;;;;;;;3.78;1.10;;;;;;;11.40;100.00;98665.25;681891;29;1415;-87
2022/02/17 01:42:09;;;;;;;4.45;1.10;;;;;;;11.35;100.00;98664.59;678553;29;2139;-85
2022/02/17 01:42:35;;;;;;;4.53;1.10;;;;;;;11.32;100.00;98686.47;678196;29;1268;-88
2022/02/17 01:43:09;;;;;;;3.88;1.08;;;;;;;11.41;100.00;98685.28;673420;29;4309;-87
2022/02/17 01:43:31;;;;;;;3.15;1.10;;;;;;;11.39;100.00;98655.69;677367;29;1400;-83
2022/02/17 01:43:52;;;;;;;3.35;1.20;;;;;;;11.41;100.00;98636.41;673087;29;1554;-85
2022/02/17 01:44:20;;;;;;;3.97;1.05;;;;;;;11.40;100.00;98644.34;676154;29;1234;-85
2022/02/17 01:44:43;;;;;;;3.72;1.08;;;;;;;11.49;100.00;98633.50;674204;29;3425;-83
2022/02/17 01:45:06;;;;;;;3.95;1.00;;;;;;;11.56;100.00;98653.25;680498;28;1715;-84
2022/02/17 01:45:32;;;;;;;3.08;0.93;;;;;;;11.54;100.00;98649.84;677545;29;1374;-81
2022/02/17 01:45:53;;;;;;;3.85;1.10;;;;;;;11.49;100.00;98656.19;675978;29;4298;-85
2022/02/17 01:46:30;;;;;;;3.15;0.85;;;;;;;11.46;100.00;98638.84;674645;29;1433;-83
2022/02/17 01:46:54;;;;;;;4.35;1.10;;;;;;;11.50;100.00;98653.50;671708;29;901;-85
2022/02/17 01:47:19;;;;;;;5.40;1.10;;;;;;;11.47;100.00;98674.56;679602;29;1542;-83
2022/02/17 01:47:45;;;;;;;3.67;0.90;;;;;;;11.50;100.00;98670.97;683067;28;2142;-80
2022/02/17 01:48:10;;;;;;;5.22;1.15;;;;;;;11.52;100.00;98656.91;679746;29;1494;-84
2022/02/17 01:48:41;;;;;;;4.95;1.17;;;;;;;11.46;100.00;98633.59;682997;28;1360;-83
2022/02/17 01:49:08;;;;;;;5.93;1.30;;;;;;;11.50;100.00;98642.19;679642;28;4302;-85
2022/02/17 01:49:29;;;;;;;3.90;1.10;;;;;;;11.46;100.00;98651.91;674489;29;1354;-84
2022/02/17 01:50:01;;;;;;;4.05;1.00;;;;;;;11.47;100.00;98669.31;678014;29;1484;-84
2022/02/17 01:50:25;;;;;;;5.38;1.50;;;;;;;11.41;100.00;98630.34;678129;29;1758;-85
2022/02/17 01:50:57;;;;;;;4.38;1.40;;;;;;;11.46;100.00;98633.59;682643;28;2394;-83
2022/02/17 01:51:41;;;;;;;4.65;1.20;;;;;;;11.50;100.00;98678.81;675764;29;1426;-84
2022/02/17 01:52:12;;;;;;;4.30;1.45;;;;;;;11.49;99.92;98638.72;665347;29;4340;-85
2022/02/17 01:52:59;;;;;;;4.53;1.38;;;;;;;11.47;99.82;98671.94;673991;29;1399;-83
2022/02/17 01:53:39;;;;;;;5.90;1.50;;;;;;;11.47;99.70;98655.41;681522;28;2311;-84
2022/02/17 01:54:09;;;;;;;5.90;1.40;;;;;;;11.50;99.70;98684.91;680012;28;1229;-84
2022/02/17 01:54:39;;;;;;;4.25;1.00;;;;;;;11.54;97.81;98668.16;678325;29;1323;-82
2022/02/17 01:54:59;;;;;;;5.85;1.20;;;;;;;11.57;98.17;98691.63;678831;29;4393;-84
2022/02/17 01:55:20;;;;;;;5.38;1.45;;;;;;;11.58;98.48;98685.44;679008;29;1344;-85
2022/02/17 01:55:47;;;;;;;5.68;1.50;;;;;;;11.57;97.38;98669.81;681298;29;1359;-86
2022/02/17 01:56:08;;;;;;;4.95;1.35;;;;;;;11.51;97.65;98643.91;674952;29;1491;-83
2022/02/17 01:56:33;;;;;;;4.88;1.30;;;;;;;11.50;98.93;98658.72;677865;29;3448;-84
2022/02/17 01:57:08;;;;;;;6.47;1.40;;;;;;;11.49;98.66;98664.91;677816;29;1465;-84
2022/02/17 01:57:33;;;;;;;4.15;1.30;;;;;;;11.47;99.02;98666.72;681083;29;1276;-84
2022/02/17 01:57:59;;;;;;;4.90;1.30;;;;;;;11.42;99.47;98666.03;678370;29;4314;-83
2022/02/17 01:58:29;;;;;;;5.50;1.35;;;;;;;11.38;99.66;98643.53;681504;29;1352;-83
2022/02/17 01:59:00;;;;;;;7.55;2.00;;;;;;;11.46;99.23;98706.88;680381;28;3534;-84
2022/02/17 01:59:25;;;;;;;5.30;1.42;;;;;;;11.44;97.32;98658.13;679320;29;1639;-85
2022/02/17 01:59:48;;;;;;;7.35;1.58;;;;;;;11.44;97.32;98659.00;677989;29;1495;-83
2022/02/17 02:00:18;;;;;;;6.63;1.63;;;;;;;11.46;97.37;98672.84;673196;29;1281;-86
2022/02/17 02:00:38;;;;;;;6.35;1.25;;;;;;;11.40;97.19;98645.16;673528;29;1930;-83
2022/02/17 02:01:03;;;;;;;6.00;1.42;;;;;;;11.48;96.78;98655.34;674702;29;4381;-84
2022/02/17 02:01:28;;;;;;;6.03;1.52;;;;;;;11.47;95.68;98674.56;675831;29;1840;-85
2022/02/17 02:02:17;;;;;;;4.78;1.30;;;;;;;11.45;95.50;98663.31;672846;29;2163;-85
2022/02/17 02:02:58;;;;;;;6.55;1.30;;;;;;;11.40;97.94;98704.50;674429;29;1477;-83
2022/02/17 02:03:36;;;;;;;6.82;1.50;;;;;;;11.44;97.60;98685.16;676323;29;1060;-85
2022/02/17 02:04:00;;;;;;;7.68;2.00;;;;;;;11.33;96.58;98648.94;678388;29;4362;-83
2022/02/17 02:04:26;;;;;;;6.85;1.65;;;;;;;11.34;97.75;98642.81;678244;29;2031;-87
2022/02/17 02:04:54;;;;;;;7.28;1.90;;;;;;;11.36;97.19;98682.84;680466;29;1193;-85
2022/02/17 02:05:16;;;;;;;7.93;1.75;;;;;;;11.35;97.46;98655.00;677612;29;1279;-85
2022/02/17 02:05:40;;;;;;;7.57;1.60;;;;;;;11.38;96.75;98685.38;676258;29;1580;-84
2022/02/17 02:06:03;;;;;;;5.30;1.20;;;;;;;11.32;97.38;98665.56;676904;29;959;-85
2022/02/17 02:06:47;;;;;;;6.70;1.50;;;;;;;11.35;97.03;98652.38;674019;29;4379;-85
2022/02/17 02:07:16;;;;;;;7.95;1.35;;;;;;;11.38;96.34;98686.25;673837;29;3104;-83